Time;durP1;ratioP1;P1;durP2;ratioP2;P2;SDS_P1;SDS_P2;PMS_P1;PMS_P2;Temp;Humidity;BMP_temperature;BMP_pressure;BME280_temperature;BME280_humidity;BME280_pressure;Samples;Min_cycle;Max_cycle;Signal;HPM_P1;HPM_P2
2023/02/22 00:00:41;;;;;;;103.40;42.20;;;;;;;5.47;100.00;100161.44;4971602;28;20089;-96
2023/02/22 00:03:23;;;;;;;97.10;40.00;;;;;;;5.59;100.00;100167.78;4973039;28;20023;-95
2023/02/22 00:05:56;;;;;;;104.03;43.30;;;;;;;5.53;100.00;100166.28;4973142;28;20539;-96
2023/02/22 00:08:24;;;;;;;96.38;41.15;;;;;;;5.73;100.00;100188.53;4972086;28;20049;-95
2023/02/22 00:10:52;;;;;;;100.05;40.08;;;;;;;5.63;100.00;100163.34;4972964;28;20038;-96
2023/02/22 00:13:21;;;;;;;102.18;41.60;;;;;;;5.67;100.00;100165.72;4972881;28;20065;-95
2023/02/22 00:15:47;;;;;;;93.78;40.05;;;;;;;5.75;100.00;100183.34;4973097;28;20035;-95
2023/02/22 00:18:15;;;;;;;100.18;37.17;;;;;;;5.76;100.00;100174.75;4973056;28;20138;-95
2023/02/22 00:20:41;;;;;;;107.00;39.80;;;;;;;5.69;100.00;100163.13;4972990;28;20031;-95
2023/02/22 00:23:13;;;;;;;84.43;35.78;;;;;;;5.67;100.00;100170.03;4972457;28;20524;-95
2023/02/22 00:25:38;;;;;;;71.05;32.25;;;;;;;5.61;100.00;100154.91;4972811;28;20034;-96
2023/02/22 00:28:04;;;;;;;69.60;33.00;;;;;;;5.72;100.00;100166.38;4972846;28;20126;-96
2023/02/22 00:30:32;;;;;;;77.38;33.33;;;;;;;5.62;100.00;100146.34;4972842;28;20114;-96
2023/02/22 00:32:58;;;;;;;90.82;35.90;;;;;;;5.81;100.00;100188.22;4972869;28;20031;-96
2023/02/22 00:35:26;;;;;;;80.53;34.67;;;;;;;5.47;100.00;100138.41;4972998;28;20055;-95
2023/02/22 00:37:54;;;;;;;77.82;33.72;;;;;;;5.78;100.00;100185.78;4972143;28;20030;-96
2023/02/22 00:40:22;;;;;;;86.13;35.22;;;;;;;5.77;100.00;100176.41;4972992;28;20563;-95
2023/02/22 00:42:49;;;;;;;74.80;31.33;;;;;;;5.51;100.00;100139.94;4972982;28;20595;-96
2023/02/22 00:45:20;;;;;;;78.05;31.08;;;;;;;5.78;100.00;100172.97;4976723;28;20445;-95
2023/02/22 00:47:46;;;;;;;74.40;32.30;;;;;;;5.62;100.00;100169.38;4976890;28;20022;-96
2023/02/22 00:50:12;;;;;;;76.28;30.73;;;;;;;5.50;100.00;100140.81;4976612;28;20038;-94
2023/02/22 00:52:38;;;;;;;77.88;31.40;;;;;;;5.72;100.00;100165.53;4975367;28;20022;-95
2023/02/22 00:55:06;;;;;;;76.07;32.83;;;;;;;5.71;100.00;100161.31;4962738;28;20077;-96
2023/02/22 00:57:33;;;;;;;86.35;31.92;;;;;;;5.53;100.00;100133.00;4957019;29;20509;-96
2023/02/22 01:00:10;;;;;;;92.13;32.95;;;;;;;5.53;100.00;100127.88;4957215;29;20023;-95
2023/02/22 01:02:37;;;;;;;74.18;31.30;;;;;;;5.55;100.00;100113.31;4957081;29;20031;-96
2023/02/22 01:05:04;;;;;;;69.65;30.92;;;;;;;5.61;100.00;100122.47;4957145;29;20019;-95
2023/02/22 01:07:29;;;;;;;86.72;34.75;;;;;;;5.64;100.00;100124.91;4956942;28;20495;-95
2023/02/22 01:09:55;;;;;;;73.97;32.03;;;;;;;5.67;100.00;100129.06;4975881;28;20066;-96
2023/02/22 01:12:21;;;;;;;73.20;30.95;;;;;;;5.65;100.00;100118.03;4976271;28;20499;-95
2023/02/22 01:14:47;;;;;;;103.93;35.10;;;;;;;5.49;100.00;100121.25;4976371;28;20499;-96
2023/02/22 01:17:13;;;;;;;94.30;34.85;;;;;;;5.58;100.00;100126.00;4976492;28;20034;-95
2023/02/22 01:19:41;;;;;;;89.18;32.53;;;;;;;5.43;100.00;100097.63;4976216;28;20030;-95
2023/02/22 01:22:07;;;;;;;88.45;31.77;;;;;;;5.50;100.00;100110.09;4975984;28;20049;-95
2023/02/22 01:24:33;;;;;;;78.63;30.52;;;;;;;5.56;100.00;100109.88;4974539;28;20033;-95
2023/02/22 01:27:00;;;;;;;81.30;30.48;;;;;;;5.65;100.00;100108.63;4975668;28;20117;-96
2023/02/22 01:29:26;;;;;;;81.25;32.47;;;;;;;5.63;100.00;100107.84;4975868;28;20034;-96
2023/02/22 01:31:53;;;;;;;72.47;28.75;;;;;;;5.59;100.00;100090.97;4975707;28;20101;-95
2023/02/22 01:34:21;;;;;;;78.38;28.83;;;;;;;5.70;100.00;100113.56;4975878;28;20512;-96
2023/02/22 01:36:46;;;;;;;62.95;26.23;;;;;;;5.70;100.00;100095.63;4975710;28;20019;-95
2023/02/22 01:39:12;;;;;;;73.78;29.17;;;;;;;5.72;100.00;100097.22;4975072;28;20033;-95
2023/02/22 01:41:38;;;;;;;74.88;27.75;;;;;;;5.65;100.00;100089.88;4976035;28;20054;-95
2023/02/22 01:44:26;;;;;;;68.43;26.33;;;;;;;5.80;100.00;100109.69;4975652;28;20054;-95
2023/02/22 01:46:52;;;;;;;86.53;29.85;;;;;;;5.76;100.00;100113.31;4975690;28;20022;-95
2023/02/22 01:49:18;;;;;;;75.13;28.17;;;;;;;5.61;100.00;100078.09;4975367;28;20070;-94
2023/02/22 01:51:49;;;;;;;77.30;27.23;;;;;;;5.66;100.00;100091.56;4975465;28;20561;-96
2023/02/22 01:54:29;;;;;;;75.38;27.27;;;;;;;5.62;100.00;100095.13;4974641;28;20041;-95
2023/02/22 01:57:01;;;;;;;97.45;31.70;;;;;;;5.39;100.00;100068.78;4974776;28;20062;-96
2023/02/22 01:59:28;;;;;;;;;;;;;;;5.66;100.00;100106.91;4975654;28;20489;-95
2023/02/22 02:01:54;;;;;;;66.70;24.60;;;;;;;5.29;100.00;100087.97;4975327;28;19914;-94
2023/02/22 02:04:24;;;;;;;79.57;27.95;;;;;;;5.30;100.00;100090.47;4974956;28;20027;-95
2023/02/22 02:06:52;;;;;;;85.70;28.92;;;;;;;5.36;100.00;100095.34;4975477;28;20023;-95
2023/02/22 02:09:43;;;;;;;77.30;28.40;;;;;;;5.39;100.00;100108.88;4974555;28;20086;-94
2023/02/22 02:12:11;;;;;;;86.68;29.60;;;;;;;5.34;100.00;100091.16;4975095;28;20062;-94
2023/02/22 02:14:40;;;;;;;73.32;26.83;;;;;;;5.42;100.00;100091.69;4974929;28;20042;-96
2023/02/22 02:17:08;;;;;;;93.20;29.95;;;;;;;5.27;100.00;100079.53;4974907;28;20113;-96
2023/02/22 02:20:15;;;;;;;81.18;29.38;;;;;;;5.45;100.00;100091.56;4975070;28;21000;-96
2023/02/22 02:22:59;;;;;;;58.38;24.02;;;;;;;5.46;100.00;100090.66;4878294;29;20039;-96
2023/02/22 02:25:36;;;;;;;94.78;28.23;;;;;;;5.45;100.00;100103.53;4968131;28;20046;-95
2023/02/22 02:28:26;;;;;;;94.85;30.33;;;;;;;5.44;100.00;100097.56;4955626;29;20520;-96
2023/02/22 02:31:29;;;;;;;96.35;29.92;;;;;;;5.32;100.00;100092.97;4973337;28;20027;-95
2023/02/22 02:34:27;;;;;;;108.03;31.00;;;;;;;5.35;100.00;100087.72;4975005;28;20026;-96
2023/02/22 02:37:05;;;;;;;105.00;28.65;;;;;;;5.23;100.00;100070.31;4974831;28;20027;-96
2023/02/22 02:39:36;;;;;;;85.57;26.75;;;;;;;5.33;100.00;100081.81;4974420;28;20392;-95
2023/02/22 02:42:07;;;;;;;80.15;26.75;;;;;;;5.11;100.00;100046.06;4974592;28;20023;-95
2023/02/22 02:44:40;;;;;;;108.63;29.30;;;;;;;5.13;100.00;100057.91;4974553;28;20493;-96
2023/02/22 02:47:13;;;;;;;105.88;27.90;;;;;;;5.26;100.00;100053.09;4973948;28;20061;-95
2023/02/22 02:50:05;;;;;;;94.13;29.63;;;;;;;5.35;100.00;100077.47;4975494;28;20058;-95
2023/02/22 02:52:33;;;;;;;96.65;28.45;;;;;;;5.15;100.00;100040.75;4974448;28;20036;-95
2023/02/22 02:55:01;;;;;;;97.63;29.65;;;;;;;5.31;100.00;100030.69;4974059;28;20130;-95
2023/02/22 02:57:27;;;;;;;83.93;26.77;;;;;;;5.29;100.00;100021.44;4968996;28;20028;-94
2023/02/22 02:59:52;;;;;;;72.68;26.60;;;;;;;5.44;100.00;100050.66;4959939;28;20018;-95
2023/02/22 03:02:36;;;;;;;100.38;29.13;;;;;;;5.32;100.00;100054.59;4973303;28;20035;-95
2023/02/22 03:05:27;;;;;;;77.53;26.40;;;;;;;5.42;100.00;100053.28;4973685;28;20030;-96
2023/02/22 03:08:03;;;;;;;109.13;30.00;;;;;;;5.37;100.00;100057.78;4973262;28;20473;-95
2023/02/22 03:10:49;;;;;;;79.90;27.08;;;;;;;5.43;100.00;100052.38;4973806;28;20477;-94
2023/02/22 03:13:44;;;;;;;88.97;28.35;;;;;;;5.35;100.00;100057.00;4973712;28;20478;-94
2023/02/22 03:16:46;;;;;;;91.45;28.17;;;;;;;5.36;100.00;100048.41;4969753;28;20023;-95
2023/02/22 03:19:31;;;;;;;81.65;27.08;;;;;;;5.35;100.00;100046.78;4970455;28;20066;-95
2023/02/22 03:22:23;;;;;;;84.70;26.13;;;;;;;5.38;100.00;100041.50;4970896;28;20034;-94
2023/02/22 03:25:15;;;;;;;;;;;;;;;5.37;100.00;100032.19;4944946;29;20662;-94
2023/02/22 03:27:52;;;;;;;84.37;26.77;;;;;;;5.42;100.00;100034.56;4967159;28;20005;-95
2023/02/22 03:30:44;;;;;;;82.40;26.10;;;;;;;5.43;100.00;100039.59;4975001;28;20292;-95
2023/02/22 03:33:32;;;;;;;81.40;25.48;;;;;;;5.30;100.00;100018.00;4973591;28;20038;-96
2023/02/22 03:36:02;;;;;;;94.72;28.83;;;;;;;5.23;100.00;100011.47;4973523;28;20065;-95
2023/02/22 03:38:31;;;;;;;89.05;28.38;;;;;;;5.33;100.00;100021.22;4973320;28;20060;-95
2023/02/22 03:41:01;;;;;;;103.68;28.85;;;;;;;5.27;100.00;100015.56;4973793;28;20361;-95
2023/02/22 03:43:49;;;;;;;91.93;28.92;;;;;;;5.35;100.00;100019.44;4973468;28;20380;-95
2023/02/22 03:46:18;;;;;;;97.93;28.92;;;;;;;5.28;100.00;100012.09;4988097;28;20031;-95
2023/02/22 03:48:57;;;;;;;94.97;28.88;;;;;;;5.32;100.00;100014.47;4989634;28;20525;-95
2023/02/22 03:51:23;;;;;;;81.72;27.20;;;;;;;5.26;100.00;99995.97;4973313;28;20477;-95
2023/02/22 03:53:50;;;;;;;70.32;27.13;;;;;;;5.25;100.00;99989.22;4973147;28;20019;-96
2023/02/22 03:56:27;;;;;;;82.80;27.40;;;;;;;5.43;100.00;100014.00;4988589;28;20039;-95
2023/02/22 03:58:53;;;;;;;75.63;26.98;;;;;;;5.31;100.00;99994.06;4972965;28;20062;-94
2023/02/22 04:01:18;;;;;;;96.00;28.80;;;;;;;5.27;100.00;99984.88;4973179;28;20473;-95
2023/02/22 04:03:44;;;;;;;130.07;33.28;;;;;;;5.34;100.00;100010.13;4973098;28;20027;-95
2023/02/22 04:06:10;;;;;;;112.15;30.80;;;;;;;5.24;100.00;99983.28;4973243;28;20465;-94
2023/02/22 04:08:36;;;;;;;110.50;30.17;;;;;;;5.29;100.00;99977.94;4973107;28;20026;-95
2023/02/22 04:11:02;;;;;;;81.07;27.55;;;;;;;5.39;100.00;99993.72;4972364;28;20109;-95
2023/02/22 04:13:27;;;;;;;109.60;31.70;;;;;;;5.20;100.00;99986.03;4989175;28;20023;-96
2023/02/22 04:15:53;;;;;;;109.05;31.73;;;;;;;5.41;100.00;100000.44;4989095;28;20440;-95
2023/02/22 04:18:19;;;;;;;85.75;26.92;;;;;;;5.40;100.00;99993.66;4972690;28;20122;-95
2023/02/22 04:20:45;;;;;;;100.15;29.40;;;;;;;5.30;100.00;99966.81;4989260;28;20143;-95
2023/02/22 04:23:10;;;;;;;90.40;28.38;;;;;;;5.43;100.00;99993.53;4988996;28;20019;-95
2023/02/22 04:25:36;;;;;;;91.05;29.95;;;;;;;5.44;100.00;100002.88;4972070;28;20063;-95
2023/02/22 04:28:02;;;;;;;88.05;28.80;;;;;;;5.30;100.00;99971.94;4973011;28;20027;-95
2023/02/22 04:30:28;;;;;;;109.75;32.60;;;;;;;5.19;100.00;99963.88;4972810;28;20512;-94
2023/02/22 04:32:55;;;;;;;116.82;33.47;;;;;;;5.26;100.00;99973.78;4972928;28;20027;-94
2023/02/22 04:35:21;;;;;;;115.18;32.65;;;;;;;5.44;100.00;99981.53;4973116;28;20477;-95
2023/02/22 04:37:46;;;;;;;126.85;33.05;;;;;;;5.38;100.00;99985.22;4972954;28;20122;-95
2023/02/22 04:40:12;;;;;;;108.82;31.80;;;;;;;5.19;100.00;99967.25;4972196;28;20062;-94
2023/02/22 04:42:38;;;;;;;103.88;32.35;;;;;;;5.24;100.00;99956.81;4972676;28;20026;-94
2023/02/22 04:45:06;;;;;;;102.35;30.45;;;;;;;5.25;100.00;99968.75;4973171;28;20022;-94
2023/02/22 04:47:32;;;;;;;93.15;30.73;;;;;;;5.22;100.00;99959.47;4972866;28;20022;-95
2023/02/22 04:49:59;;;;;;;97.00;31.08;;;;;;;5.23;100.00;99960.28;4973120;28;20035;-94
2023/02/22 04:52:25;;;;;;;128.40;36.00;;;;;;;5.13;100.00;99957.31;4972800;28;20031;-95
2023/02/22 04:54:51;;;;;;;123.15;36.50;;;;;;;5.08;100.00;99956.66;4971842;28;20058;-94
2023/02/22 04:57:17;;;;;;;90.22;30.65;;;;;;;5.14;100.00;99952.13;4988702;28;20071;-94
2023/02/22 04:59:42;;;;;;;124.10;35.40;;;;;;;5.26;100.00;99984.00;4972536;28;20038;-94
2023/02/22 05:02:08;;;;;;;115.07;34.67;;;;;;;5.22;100.00;99979.09;4971924;28;20031;-94
2023/02/22 05:04:34;;;;;;;95.15;33.20;;;;;;;5.31;100.00;99983.81;4972680;28;20481;-94
2023/02/22 05:07:00;;;;;;;113.32;35.78;;;;;;;5.22;100.00;99984.19;4972655;28;20110;-95
2023/02/22 05:09:25;;;;;;;130.63;38.88;;;;;;;5.28;100.00;99989.91;4972574;28;20130;-96
2023/02/22 05:11:51;;;;;;;106.15;34.30;;;;;;;5.25;100.00;99974.69;4988686;28;20458;-94
2023/02/22 05:14:16;;;;;;;97.95;35.80;;;;;;;5.19;100.00;99966.44;4972430;28;20030;-96
2023/02/22 05:16:42;;;;;;;89.65;33.03;;;;;;;5.38;100.00;99971.59;4971776;28;20513;-94
2023/02/22 05:19:08;;;;;;;105.47;36.22;;;;;;;5.13;100.00;99944.50;4972355;28;20030;-94
2023/02/22 05:21:33;;;;;;;105.85;36.20;;;;;;;5.19;100.00;99953.63;4972495;28;20445;-94
2023/02/22 05:23:59;;;;;;;116.78;37.72;;;;;;;5.19;100.00;99958.75;4972436;28;20058;-95
2023/02/22 05:26:24;;;;;;;102.03;35.15;;;;;;;5.12;100.00;99964.16;4972435;28;20061;-94
2023/02/22 05:28:50;;;;;;;100.93;34.08;;;;;;;5.19;100.00;99972.38;4972338;28;20078;-94
2023/02/22 05:31:16;;;;;;;101.53;36.05;;;;;;;5.22;100.00;99950.94;4973731;28;20869;-94
2023/02/22 05:33:42;;;;;;;108.70;37.22;;;;;;;5.14;100.00;99957.25;4975751;28;20034;-94
2023/02/22 05:36:08;;;;;;;93.07;34.05;;;;;;;5.28;100.00;99960.94;4975977;28;20117;-94
2023/02/22 05:38:41;;;;;;;92.60;33.97;;;;;;;5.14;100.00;99933.38;4975800;28;20026;-94
2023/02/22 05:41:09;;;;;;;98.22;36.28;;;;;;;5.29;100.00;99954.91;4975690;28;20023;-95
2023/02/22 05:43:35;;;;;;;92.07;33.90;;;;;;;5.26;100.00;99945.63;4975912;28;20023;-94
2023/02/22 05:46:01;;;;;;;104.13;36.83;;;;;;;5.23;100.00;99955.19;4974970;28;20031;-95
2023/02/22 05:48:26;;;;;;;89.18;33.75;;;;;;;5.42;100.00;99979.06;4975345;28;20019;-94
2023/02/22 05:50:52;;;;;;;82.00;31.58;;;;;;;5.26;100.00;99934.56;4975730;28;20057;-96
2023/02/22 05:53:18;;;;;;;104.85;35.22;;;;;;;5.33;100.00;99943.63;4975381;28;20109;-95
2023/02/22 05:55:43;;;;;;;97.15;34.97;;;;;;;5.28;100.00;99931.03;4975516;28;20034;-94
2023/02/22 05:58:09;;;;;;;82.82;33.65;;;;;;;5.27;100.00;99934.50;4975589;28;20113;-93
2023/02/22 06:00:34;;;;;;;97.80;35.00;;;;;;;5.46;100.00;99975.50;4974462;28;20058;-95
2023/02/22 06:03:07;;;;;;;104.55;35.90;;;;;;;5.42;100.00;99961.16;4975353;28;20154;-95
2023/02/22 06:05:32;;;;;;;91.85;35.20;;;;;;;5.45;100.00;99966.13;4975141;28;20481;-95
2023/02/22 06:07:58;;;;;;;79.90;31.85;;;;;;;5.50;100.00;99968.50;4975296;28;20034;-94
2023/02/22 06:10:24;;;;;;;85.57;33.42;;;;;;;5.41;100.00;99949.25;4975066;28;21390;-94
2023/02/22 06:12:52;;;;;;;81.15;32.20;;;;;;;5.56;100.00;99970.81;4974946;28;20023;-95
2023/02/22 06:15:19;;;;;;;80.30;32.28;;;;;;;5.38;100.00;99928.91;4974500;28;20113;-94
2023/02/22 06:17:46;;;;;;;96.60;32.97;;;;;;;5.58;100.00;99959.59;4974880;28;20026;-95
2023/02/22 06:20:13;;;;;;;93.95;33.08;;;;;;;5.49;100.00;99938.69;4975053;28;20022;-94
2023/02/22 06:22:41;;;;;;;84.88;32.53;;;;;;;5.45;100.00;99935.44;4975095;28;20030;-95
2023/02/22 06:25:09;;;;;;;76.60;31.65;;;;;;;5.55;100.00;99941.78;4975149;28;20577;-94
2023/02/22 06:27:34;;;;;;;77.75;29.63;;;;;;;5.49;100.00;99964.28;4974757;28;20026;-95
2023/02/22 06:30:01;;;;;;;70.72;29.58;;;;;;;5.54;100.00;99955.50;4973901;28;20031;-94
2023/02/22 06:32:27;;;;;;;68.85;29.30;;;;;;;5.48;100.00;99939.56;4974769;28;20078;-95
2023/02/22 06:34:52;;;;;;;75.63;30.92;;;;;;;5.20;100.00;99929.75;4974551;28;20023;-94
2023/02/22 06:37:18;;;;;;;76.05;31.40;;;;;;;5.44;100.00;99946.56;4974500;28;20061;-94
2023/02/22 06:39:43;;;;;;;75.75;31.05;;;;;;;5.48;100.00;99942.13;4974704;28;20106;-96
2023/02/22 06:42:09;;;;;;;72.47;27.35;;;;;;;5.55;100.00;99940.97;4990713;28;20546;-94
2023/02/22 06:44:34;;;;;;;74.22;28.25;;;;;;;5.60;100.00;99953.56;4973834;28;20046;-94
2023/02/22 06:47:01;;;;;;;84.50;28.95;;;;;;;5.60;100.00;99964.63;4974602;28;20150;-96
2023/02/22 06:49:27;;;;;;;79.32;29.17;;;;;;;5.41;100.00;99928.78;4974242;28;20110;-95
2023/02/22 06:51:53;;;;;;;72.22;27.23;;;;;;;5.76;100.00;99973.28;4974154;28;20027;-95
2023/02/22 06:54:20;;;;;;;74.40;28.58;;;;;;;5.37;100.00;99929.81;4974363;28;20015;-94
2023/02/22 06:56:45;;;;;;;67.05;26.70;;;;;;;5.51;100.00;99950.53;4974170;28;20097;-94
2023/02/22 06:59:11;;;;;;;68.70;26.98;;;;;;;5.53;100.00;99942.75;4970314;28;20067;-95
2023/02/22 07:01:39;;;;;;;70.95;27.00;;;;;;;5.72;100.00;99978.63;4970842;28;20034;-95
2023/02/22 07:04:05;;;;;;;65.35;26.95;;;;;;;5.68;100.00;99971.97;4954952;29;20027;-95
2023/02/22 07:06:30;;;;;;;72.30;26.25;;;;;;;5.67;100.00;99967.75;4954798;29;20532;-95
2023/02/22 07:08:56;;;;;;;66.85;25.63;;;;;;;5.66;100.00;99953.31;4970839;28;20024;-94
2023/02/22 07:11:22;;;;;;;68.00;25.80;;;;;;;5.70;100.00;99965.03;4970812;28;20027;-95
2023/02/22 07:13:47;;;;;;;59.10;23.88;;;;;;;5.67;100.00;99953.22;4977558;28;20023;-94
2023/02/22 07:16:13;;;;;;;63.78;26.08;;;;;;;5.72;100.00;99963.25;4973993;28;20050;-96
2023/02/22 07:18:38;;;;;;;57.00;23.63;;;;;;;5.65;100.00;99942.22;4973825;28;20121;-96
2023/02/22 07:21:04;;;;;;;60.50;25.95;;;;;;;5.85;100.00;99974.59;4973993;28;20031;-96
2023/02/22 07:23:30;;;;;;;57.05;24.25;;;;;;;5.78;100.00;99952.75;4973914;28;20488;-95
2023/02/22 07:25:59;;;;;;;66.22;24.17;;;;;;;5.83;100.00;99955.94;4974057;28;20059;-95
2023/02/22 07:28:25;;;;;;;64.47;24.20;;;;;;;5.78;100.00;99948.44;4970439;28;20114;-96
2023/02/22 07:30:50;;;;;;;57.15;24.42;;;;;;;5.85;100.00;99943.03;4970707;28;20126;-96
2023/02/22 07:33:16;;;;;;;57.15;22.45;;;;;;;5.80;100.00;99935.56;4986408;28;20090;-96
2023/02/22 07:35:49;;;;;;;57.05;22.58;;;;;;;6.00;100.00;99968.00;4974906;28;20027;-96
2023/02/22 07:38:17;;;;;;;54.05;22.15;;;;;;;6.06;100.00;99974.56;4973368;28;20130;-96
2023/02/22 07:40:43;;;;;;;45.38;19.80;;;;;;;6.07;100.00;99974.50;4969922;28;20093;-95
2023/02/22 07:43:27;;;;;;;44.50;19.42;;;;;;;5.99;100.00;99962.03;4968319;28;20388;-96
2023/02/22 07:45:57;;;;;;;39.33;17.10;;;;;;;5.95;100.00;99950.28;4967553;28;20027;-94
2023/02/22 07:48:28;;;;;;;38.80;17.23;;;;;;;6.09;100.00;99969.28;4968681;28;20058;-95
2023/02/22 07:50:57;;;;;;;37.28;16.77;;;;;;;6.00;100.00;99952.63;4970879;28;20085;-95
2023/02/22 07:53:26;;;;;;;31.38;14.65;;;;;;;6.20;100.00;99974.75;4963321;28;20038;-95
2023/02/22 07:56:09;;;;;;;35.15;15.55;;;;;;;6.22;100.00;99980.63;4968206;28;20038;-96
2023/02/22 07:58:38;;;;;;;27.13;13.65;;;;;;;6.39;100.00;99980.66;4969260;28;20031;-95
2023/02/22 08:01:04;;;;;;;28.38;13.80;;;;;;;6.43;100.00;99992.41;4958443;28;20027;-94
2023/02/22 08:03:35;;;;;;;28.02;13.85;;;;;;;6.45;100.00;99994.91;4960990;28;20023;-94
2023/02/22 08:06:01;;;;;;;34.40;14.45;;;;;;;6.29;100.00;99968.34;4967370;28;20093;-95
2023/02/22 08:08:27;;;;;;;29.95;13.88;;;;;;;6.53;100.00;100012.50;4982919;28;20031;-94
2023/02/22 08:10:54;;;;;;;22.60;11.93;;;;;;;6.65;100.00;100011.91;4969758;28;20032;-94
2023/02/22 08:13:21;;;;;;;25.95;12.48;;;;;;;6.65;100.00;99996.53;4968618;28;20077;-94
2023/02/22 08:15:47;;;;;;;31.98;13.10;;;;;;;6.59;100.00;99991.72;4966896;28;20031;-93
2023/02/22 08:18:17;;;;;;;23.65;11.52;;;;;;;6.62;100.00;99983.84;4965631;28;20123;-96
2023/02/22 08:20:44;;;;;;;25.92;12.15;;;;;;;6.70;100.00;100004.00;4962670;28;20480;-96
2023/02/22 08:23:12;;;;;;;23.10;12.30;;;;;;;6.75;100.00;100000.31;4982558;28;20030;-96
2023/02/22 08:25:37;;;;;;;20.77;10.95;;;;;;;6.94;100.00;100017.38;4968420;28;20117;-95
2023/02/22 08:28:09;;;;;;;22.08;11.57;;;;;;;6.49;100.00;99985.38;4967084;28;20113;-95
2023/02/22 08:30:36;;;;;;;21.02;11.10;;;;;;;6.72;100.00;99999.63;4977889;28;20042;-95
2023/02/22 08:33:02;;;;;;;21.55;11.35;;;;;;;6.71;100.00;99990.28;4968229;28;20270;-95
2023/02/22 08:35:30;;;;;;;24.48;11.63;;;;;;;6.68;100.00;99985.28;4970147;28;20058;-96
2023/02/22 08:37:59;;;;;;;23.75;12.05;;;;;;;6.73;100.00;99986.75;4966268;28;20030;-95
2023/02/22 08:40:27;;;;;;;23.95;13.07;;;;;;;6.99;100.00;100002.56;4965341;28;20041;-96
2023/02/22 08:42:54;;;;;;;22.70;12.57;;;;;;;7.03;100.00;100011.78;4966688;28;20193;-96
2023/02/22 08:45:20;;;;;;;22.67;12.10;;;;;;;7.03;100.00;99981.81;4968173;28;20038;-96
2023/02/22 08:47:46;;;;;;;21.88;12.40;;;;;;;7.35;100.00;100011.91;4967349;28;20031;-94
2023/02/22 08:50:34;;;;;;;25.92;11.80;;;;;;;7.33;100.00;99994.00;4982393;28;20507;-95
2023/02/22 08:53:02;;;;;;;21.63;11.07;;;;;;;7.38;100.00;100004.88;4983575;28;20034;-95
2023/02/22 08:55:33;;;;;;;21.02;11.40;;;;;;;7.50;100.00;100008.56;4973579;28;20051;-96
2023/02/22 08:58:01;;;;;;;17.27;11.80;;;;;;;7.69;100.00;99998.97;4972087;28;20105;-96
2023/02/22 09:00:31;;;;;;;18.48;10.13;;;;;;;7.78;100.00;100015.66;4973604;28;20027;-95
2023/02/22 09:03:01;;;;;;;18.20;9.68;;;;;;;7.85;100.00;100022.13;4971561;28;20034;-95
2023/02/22 09:05:26;;;;;;;14.48;10.15;;;;;;;7.77;100.00;100010.59;4979767;28;20030;-96
2023/02/22 09:07:52;;;;;;;11.95;8.65;;;;;;;7.76;100.00;100004.63;4980786;28;20023;-95
2023/02/22 09:10:23;;;;;;;13.63;10.20;;;;;;;7.93;100.00;100039.72;4981967;28;20061;-96
2023/02/22 09:12:59;;;;;;;14.43;9.27;;;;;;;7.77;100.00;100023.44;4979845;28;20026;-95
2023/02/22 09:15:26;;;;;;;15.63;8.68;;;;;;;7.81;100.00;100023.19;4978094;28;20031;-96
2023/02/22 09:17:52;;;;;;;10.52;7.88;;;;;;;7.75;100.00;100015.81;4981828;28;20034;-96
2023/02/22 09:20:20;;;;;;;11.50;8.73;;;;;;;7.74;100.00;100018.47;4989257;28;20078;-94
2023/02/22 09:22:47;;;;;;;10.50;8.60;;;;;;;7.86;100.00;100033.25;4984644;28;20038;-94
2023/02/22 09:25:14;;;;;;;13.75;7.15;;;;;;;8.08;100.00;100051.75;4983240;28;20078;-94
2023/02/22 09:27:40;;;;;;;12.43;6.32;;;;;;;7.78;100.00;100025.94;4981472;28;20025;-96
2023/02/22 09:30:10;;;;;;;9.02;5.68;;;;;;;7.69;100.00;100016.97;4982329;28;20034;-94
2023/02/22 09:32:36;;;;;;;7.25;5.75;;;;;;;7.89;100.00;100036.47;4990866;28;20083;-95
2023/02/22 09:35:02;;;;;;;9.75;4.97;;;;;;;7.84;100.00;100033.31;4974498;28;20043;-95
2023/02/22 09:37:27;;;;;;;8.43;4.95;;;;;;;7.99;100.00;100052.22;4973521;28;20472;-94
2023/02/22 09:39:53;;;;;;;6.90;4.80;;;;;;;7.98;100.00;100042.03;4980487;28;20472;-95
2023/02/22 09:42:32;;;;;;;5.65;3.70;;;;;;;8.11;100.00;100032.75;4976675;28;20031;-96
2023/02/22 09:45:19;;;;;;;5.25;3.85;;;;;;;8.48;100.00;100052.19;4971289;28;20178;-95
2023/02/22 09:47:53;;;;;;;6.55;3.55;;;;;;;8.93;100.00;100073.72;4974020;28;20023;-95
2023/02/22 09:50:34;;;;;;;4.07;3.45;;;;;;;10.09;96.02;100065.16;4976834;28;20481;-94
2023/02/22 09:53:05;;;;;;;4.95;3.53;;;;;;;10.37;92.43;100050.63;4987073;28;20547;-95
2023/02/22 09:55:40;;;;;;;4.53;3.25;;;;;;;12.68;80.47;100062.63;4984091;28;20023;-95
2023/02/22 09:58:21;;;;;;;5.57;3.72;;;;;;;14.36;71.26;100055.97;4983060;28;20090;-95
2023/02/22 10:00:50;;;;;;;4.38;2.88;;;;;;;17.40;58.74;100095.19;4981079;28;20026;-96
2023/02/22 10:03:28;;;;;;;3.80;2.50;;;;;;;22.48;47.16;100142.28;4979377;28;20034;-95
2023/02/22 10:06:10;;;;;;;2.97;2.67;;;;;;;24.66;40.29;100145.03;4973906;28;20564;-96
2023/02/22 10:08:40;;;;;;;2.22;1.98;;;;;;;23.33;40.84;100117.69;4973818;28;20034;-96
2023/02/22 10:11:28;;;;;;;2.50;1.73;;;;;;;21.98;42.11;100119.81;4974187;28;20053;-96
2023/02/22 10:14:27;;;;;;;2.00;1.50;;;;;;;25.50;36.60;100108.16;4974347;28;20027;-96
2023/02/22 10:17:29;;;;;;;1.73;1.30;;;;;;;22.97;40.31;100149.88;4985144;28;20018;-96
2023/02/22 10:20:19;;;;;;;2.35;1.10;;;;;;;22.94;37.75;100089.69;4988101;28;20062;-96
2023/02/22 10:22:56;;;;;;;2.20;0.95;;;;;;;20.10;42.28;100091.72;4982764;28;20035;-95
2023/02/22 10:25:27;;;;;;;3.83;1.20;;;;;;;17.90;48.08;100088.91;4985048;28;20204;-95
2023/02/22 10:28:23;;;;;;;3.50;0.80;;;;;;;16.85;49.79;100094.97;4973688;28;20027;-95
2023/02/22 10:30:57;;;;;;;1.30;0.50;;;;;;;17.88;47.59;100109.94;4977410;28;20297;-96
2023/02/22 10:33:29;;;;;;;3.72;0.60;;;;;;;21.69;40.38;100113.34;4976307;28;20085;-96
2023/02/22 10:35:55;;;;;;;1.23;0.50;;;;;;;23.85;35.53;100284.69;4973895;28;20473;-96
2023/02/22 10:38:25;;;;;;;0.50;0.20;;;;;;;25.23;33.59;100204.06;4980805;28;20041;-96
2023/02/22 10:41:02;;;;;;;3.40;0.20;;;;;;;26.00;31.27;100177.63;4989335;28;20026;-96
2023/02/22 10:43:29;;;;;;;0.60;0.10;;;;;;;24.22;33.60;100159.09;4998066;28;20032;-96
2023/02/22 10:46:00;;;;;;;0.73;0.10;;;;;;;24.78;32.28;100073.06;4973163;28;20030;-96
2023/02/22 10:48:30;;;;;;;0.10;0.10;;;;;;;26.38;30.77;100102.25;4977186;28;20038;-95
2023/02/22 10:51:01;;;;;;;0.93;0.20;;;;;;;24.01;34.06;100136.91;4979538;28;20031;-96
2023/02/22 10:53:27;;;;;;;0.15;0.00;;;;;;;19.81;39.68;100134.00;4977088;28;20562;-96
2023/02/22 10:56:12;;;;;;;0.40;0.00;;;;;;;17.56;44.21;100139.00;4992476;28;20035;-96
2023/02/22 10:58:47;;;;;;;0.60;0.20;;;;;;;21.34;38.04;100060.22;4977037;28;20027;-94
2023/02/22 11:01:21;;;;;;;0.75;0.55;;;;;;;17.74;44.43;100126.03;4976047;28;20117;-95
2023/02/22 11:04:00;;;;;;;0.57;0.10;;;;;;;16.46;46.43;100123.59;4973794;28;20033;-95
2023/02/22 11:06:26;;;;;;;0.43;0.10;;;;;;;13.82;51.44;100119.03;4978854;28;20054;-96
2023/02/22 11:09:13;;;;;;;0.50;0.10;;;;;;;12.59;55.83;100122.84;4976575;28;20066;-95
2023/02/22 11:11:42;;;;;;;0.80;0.20;;;;;;;12.12;60.01;100138.16;4971384;28;20030;-95
2023/02/22 11:14:09;;;;;;;1.48;0.35;;;;;;;11.93;60.85;100120.47;4977961;28;20030;-95
2023/02/22 11:16:46;;;;;;;0.38;0.20;;;;;;;11.42;62.37;100119.59;4977613;28;20019;-94
2023/02/22 11:19:23;;;;;;;0.85;0.40;;;;;;;11.21;61.98;100103.75;4971315;28;20100;-95
2023/02/22 11:21:51;;;;;;;2.17;0.28;;;;;;;11.66;61.34;100127.50;4976503;28;20054;-94
2023/02/22 11:24:22;;;;;;;0.80;0.17;;;;;;;12.78;57.80;100112.00;4975575;28;20031;-94
2023/02/22 11:26:53;;;;;;;3.60;0.55;;;;;;;12.74;58.41;100124.31;5004094;28;20049;-95
2023/02/22 11:29:39;;;;;;;1.58;0.30;;;;;;;13.10;57.89;100138.16;4974873;28;20026;-95